createdAt,value
2022-10-18T00:02:05.982Z,12.43
2022-10-18T00:04:32.674Z,10.68
2022-10-18T00:06:59.211Z,12.38
2022-10-18T00:09:27.587Z,12.05
2022-10-18T00:11:55.099Z,15.23
2022-10-18T00:14:21.804Z,15.70
2022-10-18T00:16:48.498Z,15.50
2022-10-18T00:19:15.232Z,13.65
2022-10-18T00:21:41.898Z,17.98
2022-10-18T00:24:08.543Z,14.27
2022-10-18T00:26:35.147Z,16.05
2022-10-18T00:29:04.591Z,18.60
2022-10-18T00:31:36.248Z,14.35
2022-10-18T00:34:07.028Z,12.43
2022-10-18T00:36:34.474Z,15.15
2022-10-18T00:39:02.253Z,11.52
2022-10-18T00:41:31.054Z,14.13
2022-10-18T00:44:00.931Z,20.15
2022-10-18T00:46:30.191Z,14.45
2022-10-18T00:48:59.035Z,12.57
2022-10-18T00:51:40.973Z,13.52
2022-10-18T00:54:07.776Z,15.00
2022-10-18T00:56:34.894Z,15.10
2022-10-18T00:59:01.597Z,19.42
2022-10-18T01:01:28.603Z,12.98
2022-10-18T01:03:56.439Z,11.00
2022-10-18T01:06:23.188Z,13.77
2022-10-18T01:09:05.711Z,22.25
2022-10-18T01:11:32.227Z,13.73
2022-10-18T01:14:01.799Z,24.25
2022-10-18T01:16:31.272Z,22.20
2022-10-18T01:19:00.800Z,17.75
2022-10-18T01:21:42.596Z,15.73
2022-10-18T01:24:27.268Z,14.88
2022-10-18T01:27:03.964Z,12.70
2022-10-18T01:30:08.126Z,14.38
2022-10-18T01:32:43.064Z,15.05
2022-10-18T01:35:14.854Z,12.05
2022-10-18T01:37:43.547Z,15.55
2022-10-18T01:40:12.959Z,13.85
2022-10-18T01:42:40.207Z,14.10
2022-10-18T01:45:08.574Z,11.90
2022-10-18T01:47:35.747Z,13.73
2022-10-18T01:50:05.112Z,12.00
2022-10-18T01:52:31.983Z,11.15
2022-10-18T01:55:00.441Z,10.50
2022-10-18T01:57:37.707Z,13.90
2022-10-18T02:00:19.590Z,16.25
2022-10-18T02:03:01.463Z,16.05
2022-10-18T02:05:38.755Z,16.63
2022-10-18T02:08:22.953Z,12.15
2022-10-18T02:11:15.792Z,15.05
2022-10-18T02:13:46.759Z,14.95
2022-10-18T02:16:36.383Z,15.50
2022-10-18T02:19:08.527Z,13.52
2022-10-18T02:21:36.036Z,13.35
2022-10-18T02:24:02.796Z,12.43
2022-10-18T02:26:29.751Z,17.38
2022-10-18T02:28:56.548Z,14.63
2022-10-18T02:31:33.572Z,17.70
2022-10-18T02:34:21.507Z,15.75
2022-10-18T02:36:52.096Z,12.98
2022-10-18T02:39:44.105Z,15.45
2022-10-18T02:42:11.684Z,16.80
2022-10-18T02:44:39.013Z,14.73
2022-10-18T02:47:07.186Z,19.58
2022-10-18T02:49:33.898Z,16.40
2022-10-18T02:52:00.572Z,16.38
2022-10-18T02:54:27.191Z,19.05
2022-10-18T02:56:53.768Z,17.67
2022-10-18T02:59:20.385Z,16.42
2022-10-18T03:01:47.093Z,23.27
2022-10-18T03:04:13.748Z,20.08
2022-10-18T03:06:40.436Z,17.25
2022-10-18T03:09:07.322Z,21.35
2022-10-18T03:11:33.863Z,18.58
2022-10-18T03:14:00.465Z,17.10
2022-10-18T03:16:27.059Z,21.77
2022-10-18T03:18:53.633Z,20.95
2022-10-18T03:21:20.179Z,21.92
2022-10-18T03:23:46.740Z,22.15
2022-10-18T03:26:13.296Z,19.42
2022-10-18T03:28:39.937Z,22.30
2022-10-18T03:31:06.543Z,21.10
2022-10-18T03:33:33.493Z,20.25
2022-10-18T03:36:00.341Z,22.85
2022-10-18T03:38:27.240Z,20.55
2022-10-18T03:40:53.861Z,18.17
2022-10-18T03:43:20.575Z,22.35
2022-10-18T03:45:47.163Z,22.23
2022-10-18T03:48:13.908Z,22.90
2022-10-18T03:50:40.668Z,27.73
2022-10-18T03:53:07.275Z,24.42
2022-10-18T03:55:33.958Z,25.58
2022-10-18T03:58:00.561Z,21.35
2022-10-18T04:00:27.125Z,26.75
2022-10-18T04:02:55.873Z,24.55
2022-10-18T04:05:28.264Z,21.35
2022-10-18T04:07:55.088Z,26.23
2022-10-18T04:10:21.716Z,27.50
2022-10-18T04:12:48.303Z,27.30
2022-10-18T04:15:14.981Z,25.40
2022-10-18T04:17:42.078Z,23.65
2022-10-18T04:20:09.086Z,26.63
2022-10-18T04:22:35.749Z,19.98
2022-10-18T04:25:02.401Z,21.45
2022-10-18T04:27:29.167Z,25.10
2022-10-18T04:29:56.076Z,24.65
2022-10-18T04:32:22.761Z,25.70
2022-10-18T04:34:49.330Z,22.23
2022-10-18T04:37:15.911Z,19.50
2022-10-18T04:39:49.849Z,19.58
2022-10-18T04:42:19.383Z,18.55
2022-10-18T04:44:46.059Z,20.77
2022-10-18T04:47:12.668Z,26.27
2022-10-18T04:49:39.237Z,22.08
2022-10-18T04:52:05.828Z,21.33
2022-10-18T04:54:32.433Z,20.42
2022-10-18T04:56:58.999Z,19.23
2022-10-18T04:59:25.769Z,15.60
2022-10-18T05:01:52.463Z,19.80
2022-10-18T05:04:19.144Z,24.35
2022-10-18T05:06:45.877Z,28.90
2022-10-18T05:09:12.641Z,24.38
2022-10-18T05:11:39.343Z,18.23
2022-10-18T05:14:05.911Z,17.52
2022-10-18T05:16:33.200Z,21.02
2022-10-18T05:18:59.807Z,22.02
2022-10-18T05:21:26.361Z,20.85
2022-10-18T05:23:56.328Z,24.92
2022-10-18T05:26:22.915Z,19.80
2022-10-18T05:28:50.582Z,17.42
2022-10-18T05:31:17.267Z,21.00
2022-10-18T05:33:43.872Z,16.27
2022-10-18T05:36:10.971Z,20.30
2022-10-18T05:38:45.458Z,20.77
2022-10-18T05:41:12.867Z,21.83
2022-10-18T05:43:40.315Z,21.80
2022-10-18T05:46:13.524Z,20.50
2022-10-18T05:48:41.787Z,21.23
2022-10-18T05:51:08.407Z,24.85
2022-10-18T05:53:37.491Z,19.42
2022-10-18T05:56:05.804Z,24.50
2022-10-18T05:58:32.450Z,21.80
2022-10-18T06:01:00.920Z,16.55
2022-10-18T06:03:33.369Z,20.48
2022-10-18T06:06:00.829Z,25.90
2022-10-18T06:08:27.528Z,21.65
2022-10-18T06:10:54.472Z,22.35
2022-10-18T06:13:21.013Z,23.17
2022-10-18T06:15:47.624Z,25.40
2022-10-18T06:18:14.229Z,21.95
2022-10-18T06:20:40.846Z,25.95
2022-10-18T06:23:07.620Z,26.52
2022-10-18T06:25:34.236Z,22.65
2022-10-18T06:28:00.780Z,30.50
2022-10-18T06:30:27.404Z,23.83
2022-10-18T06:32:53.990Z,22.08
2022-10-18T06:35:20.523Z,20.38
2022-10-18T06:37:47.110Z,20.67
2022-10-18T06:40:13.704Z,21.20
2022-10-18T06:42:40.503Z,19.98
2022-10-18T06:45:07.716Z,19.20
2022-10-18T06:47:34.319Z,14.13
2022-10-18T06:50:00.893Z,23.27
2022-10-18T06:52:27.468Z,26.20
2022-10-18T06:54:54.082Z,22.30
2022-10-18T06:57:21.590Z,27.70
2022-10-18T06:59:48.212Z,32.42
2022-10-18T07:02:15.257Z,30.52
2022-10-18T07:04:41.810Z,28.88
2022-10-18T07:07:08.394Z,26.42
2022-10-18T07:09:35.635Z,29.33
2022-10-18T07:12:02.173Z,33.30
2022-10-18T07:14:29.280Z,28.92
2022-10-18T07:16:59.136Z,31.08
2022-10-18T07:19:25.758Z,29.75
2022-10-18T07:21:52.298Z,33.28
2022-10-18T07:24:18.896Z,31.75
2022-10-18T07:26:45.531Z,27.27
2022-10-18T07:29:12.550Z,39.03
2022-10-18T07:31:39.346Z,35.08
2022-10-18T07:34:06.852Z,26.90
2022-10-18T07:36:33.626Z,26.88
2022-10-18T07:39:00.243Z,29.05
2022-10-18T07:41:26.878Z,26.90
2022-10-18T07:43:53.678Z,28.48
2022-10-18T07:46:21.797Z,26.35
2022-10-18T07:48:48.792Z,23.92
2022-10-18T07:51:15.602Z,32.22
2022-10-18T07:53:42.146Z,28.48
2022-10-18T07:56:15.945Z,42.55
2022-10-18T07:58:47.354Z,37.95
2022-10-18T08:01:14.977Z,35.15
2022-10-18T08:03:42.372Z,34.50
2022-10-18T08:06:10.234Z,33.75
2022-10-18T08:08:38.119Z,38.22
2022-10-18T08:11:14.865Z,26.90
2022-10-18T08:13:41.575Z,35.45
2022-10-18T08:16:10.681Z,39.90
2022-10-18T08:18:37.920Z,37.03
2022-10-18T08:21:06.473Z,32.78
2022-10-18T08:26:08.740Z,34.60
2022-10-18T08:28:38.188Z,34.60
2022-10-18T08:31:10.745Z,32.30
2022-10-18T08:33:38.597Z,37.75
2022-10-18T08:36:07.855Z,42.38
2022-10-18T08:38:38.877Z,40.03
2022-10-18T08:41:23.747Z,40.13
2022-10-18T08:44:28.447Z,43.33
2022-10-18T08:47:07.141Z,53.28
2022-10-18T08:49:44.328Z,42.75
2022-10-18T08:52:24.379Z,43.00
2022-10-18T08:55:03.161Z,41.83
2022-10-18T08:57:31.216Z,46.17
2022-10-18T08:59:58.058Z,38.67
2022-10-18T09:02:33.172Z,36.85
2022-10-18T09:05:05.518Z,30.88
2022-10-18T09:08:17.135Z,31.05
2022-10-18T09:10:52.883Z,30.27
2022-10-18T09:13:22.214Z,25.75
2022-10-18T09:15:55.844Z,27.48
2022-10-18T09:18:54.774Z,27.30
2022-10-18T09:21:26.893Z,24.17
2022-10-18T09:24:02.181Z,34.60
2022-10-18T09:26:31.680Z,25.45
2022-10-18T09:29:10.473Z,18.98
2022-10-18T09:32:08.176Z,21.25
2022-10-18T09:34:42.887Z,22.13
2022-10-18T09:37:12.746Z,20.33
2022-10-18T09:39:39.596Z,14.95
2022-10-18T09:42:15.233Z,14.05
2022-10-18T09:44:49.490Z,24.98
2022-10-18T09:47:23.357Z,19.90
2022-10-18T09:50:01.122Z,17.02
2022-10-18T09:52:35.957Z,34.47
2022-10-18T09:55:19.924Z,25.30
2022-10-18T09:58:06.998Z,22.00
2022-10-18T10:00:38.027Z,33.00
2022-10-18T10:03:15.771Z,27.50
2022-10-18T10:05:43.596Z,23.48
2022-10-18T10:08:10.521Z,33.08
2022-10-18T10:10:39.869Z,35.40
2022-10-18T10:13:23.453Z,31.17
2022-10-18T10:15:58.295Z,30.63
2022-10-18T10:18:36.759Z,34.53
2022-10-18T10:23:39.738Z,29.75
2022-10-18T10:26:27.601Z,35.40
2022-10-18T10:28:54.235Z,29.40
2022-10-18T10:31:31.427Z,33.05
2022-10-18T10:34:05.374Z,28.52
2022-10-18T10:36:32.935Z,26.85
2022-10-18T10:39:05.637Z,24.85
2022-10-18T10:44:05.843Z,26.58
2022-10-18T10:46:36.668Z,27.95
2022-10-18T10:49:35.014Z,22.30
2022-10-18T10:52:09.325Z,18.23
2022-10-18T10:54:47.541Z,22.67
2022-10-18T10:57:23.346Z,20.77
2022-10-18T10:59:56.340Z,17.42
2022-10-18T11:02:26.761Z,17.40
2022-10-18T11:04:55.221Z,16.25
2022-10-18T11:07:40.543Z,19.30
2022-10-18T11:10:10.085Z,20.58
2022-10-18T11:12:47.504Z,19.05
2022-10-18T11:15:35.936Z,16.70
2022-10-18T11:18:08.603Z,16.33
2022-10-18T11:20:57.678Z,16.98
2022-10-18T11:23:34.975Z,13.90
2022-10-18T11:26:13.880Z,15.75
2022-10-18T11:28:58.775Z,16.70
2022-10-18T11:32:07.129Z,17.20
2022-10-18T11:34:45.792Z,15.85
2022-10-18T11:37:38.538Z,12.80
2022-10-18T11:40:18.995Z,16.40
2022-10-18T11:42:58.224Z,12.02
2022-10-18T11:48:19.080Z,12.63
2022-10-18T11:50:56.821Z,13.15
2022-10-18T11:54:07.558Z,19.48
2022-10-18T11:56:44.072Z,12.63
2022-10-18T11:59:26.020Z,10.32
2022-10-18T12:02:21.979Z,8.52
2022-10-18T12:04:59.859Z,9.90
2022-10-18T12:07:43.833Z,10.40
2022-10-18T12:10:22.078Z,14.35
2022-10-18T12:13:02.246Z,11.30
2022-10-18T12:15:29.972Z,11.98
2022-10-18T12:18:00.164Z,9.47
2022-10-18T12:20:40.441Z,11.63
2022-10-18T12:23:19.789Z,10.30
2022-10-18T12:25:50.761Z,7.43
2022-10-18T12:28:42.503Z,8.02
2022-10-18T12:31:31.110Z,12.60
2022-10-18T12:34:01.719Z,6.18
2022-10-18T12:36:43.112Z,9.52
2022-10-18T12:39:21.561Z,8.32
2022-10-18T12:41:56.841Z,7.43
2022-10-18T12:44:34.669Z,13.57
2022-10-18T12:47:03.848Z,6.20
2022-10-18T12:49:33.344Z,6.70
2022-10-18T12:52:02.620Z,11.73
2022-10-18T12:54:37.432Z,11.98
2022-10-18T12:57:06.732Z,7.93
2022-10-18T12:59:33.228Z,6.05
2022-10-18T13:01:59.837Z,8.15
2022-10-18T13:04:29.661Z,9.40
2022-10-18T13:07:05.379Z,7.10
2022-10-18T13:09:37.102Z,9.85
2022-10-18T13:12:09.695Z,8.05
2022-10-18T13:14:48.184Z,10.32
2022-10-18T13:17:40.516Z,5.93
2022-10-18T13:20:37.378Z,8.60
2022-10-18T13:23:30.077Z,10.32
2022-10-18T13:26:09.764Z,7.30
2022-10-18T13:28:39.432Z,9.02
2022-10-18T13:31:58.415Z,9.07
2022-10-18T13:34:30.287Z,7.40
2022-10-18T13:37:05.907Z,7.90
2022-10-18T13:39:33.266Z,5.97
2022-10-18T13:42:00.723Z,8.82
2022-10-18T13:44:28.776Z,6.93
2022-10-18T13:46:55.278Z,5.00
2022-10-18T13:49:40.320Z,5.97
2022-10-18T13:52:47.990Z,6.57
2022-10-18T13:55:29.797Z,5.25
2022-10-18T13:58:31.805Z,5.97
2022-10-18T14:01:28.128Z,8.27
2022-10-18T14:04:32.125Z,8.18
2022-10-18T14:07:02.339Z,7.70
2022-10-18T14:09:43.784Z,6.07
2022-10-18T14:12:20.393Z,4.38
2022-10-18T14:14:55.303Z,5.28
2022-10-18T14:20:18.975Z,8.35
2022-10-18T14:22:51.569Z,10.52
2022-10-18T14:25:38.312Z,7.68
2022-10-18T14:28:27.372Z,7.30
2022-10-18T14:31:12.152Z,4.78
2022-10-18T14:33:41.175Z,4.47
2022-10-18T14:36:16.068Z,8.43
2022-10-18T14:38:50.576Z,5.13
2022-10-18T14:41:20.681Z,10.75
2022-10-18T14:43:48.240Z,4.57
2022-10-18T14:46:28.979Z,6.13
2022-10-18T14:49:02.043Z,4.55
2022-10-18T14:51:32.964Z,5.22
2022-10-18T14:53:59.571Z,4.55
2022-10-18T14:56:29.268Z,5.20
2022-10-18T14:58:57.384Z,4.07
2022-10-18T15:01:26.777Z,5.00
2022-10-18T15:03:58.528Z,7.50
2022-10-18T15:06:25.784Z,5.47
2022-10-18T15:08:59.460Z,14.82
2022-10-18T15:11:27.238Z,5.15
2022-10-18T15:13:56.503Z,10.80
2022-10-18T15:16:26.228Z,8.38
2022-10-18T15:19:07.196Z,7.78
2022-10-18T15:21:37.031Z,12.10
2022-10-18T15:24:41.932Z,5.53
2022-10-18T15:27:11.600Z,10.38
2022-10-18T15:29:38.266Z,7.68
2022-10-18T15:32:17.787Z,8.32
2022-10-18T15:34:45.784Z,7.05
2022-10-18T15:37:32.341Z,10.52
2022-10-18T15:40:24.161Z,13.73
2022-10-18T15:42:55.320Z,8.07
2022-10-18T15:45:24.843Z,6.68
2022-10-18T15:48:00.719Z,7.75
2022-10-18T15:50:41.147Z,8.57
2022-10-18T15:53:23.084Z,6.32
2022-10-18T15:55:56.644Z,4.32
2022-10-18T15:58:28.616Z,8.40
2022-10-18T16:01:00.618Z,7.57
2022-10-18T16:03:27.919Z,6.78
2022-10-18T16:06:00.443Z,4.18
2022-10-18T16:08:30.466Z,5.75
2022-10-18T16:10:58.826Z,5.38
2022-10-18T16:13:26.192Z,5.75
2022-10-18T16:15:55.706Z,4.20
2022-10-18T16:18:22.591Z,3.72
2022-10-18T16:20:49.257Z,3.55
2022-10-18T16:23:28.299Z,5.75
2022-10-18T16:25:55.028Z,5.53
2022-10-18T16:28:24.732Z,3.00
2022-10-18T16:31:01.985Z,5.00
2022-10-18T16:33:28.670Z,5.50
2022-10-18T16:35:55.561Z,10.63
2022-10-18T16:38:36.465Z,4.70
2022-10-18T16:41:04.732Z,3.78
2022-10-18T16:43:31.932Z,3.92
2022-10-18T16:45:58.535Z,2.63
2022-10-18T16:48:25.484Z,4.47
2022-10-18T16:50:53.893Z,6.07
2022-10-18T16:53:23.453Z,6.35
2022-10-18T16:56:19.152Z,6.50
2022-10-18T16:58:46.227Z,7.55
2022-10-18T17:01:14.527Z,8.23
2022-10-18T17:03:41.105Z,5.95
2022-10-18T17:06:13.979Z,4.43
2022-10-18T17:08:40.590Z,7.03
2022-10-18T17:11:07.155Z,12.90
2022-10-18T17:13:33.724Z,4.70
2022-10-18T17:16:00.949Z,3.50
2022-10-18T17:18:27.676Z,11.18
2022-10-18T17:20:54.441Z,4.50
2022-10-18T17:23:20.976Z,4.10
2022-10-18T17:25:59.111Z,4.70
2022-10-18T17:28:34.329Z,4.47
2022-10-18T17:31:00.958Z,3.80
2022-10-18T17:33:27.503Z,4.78
2022-10-18T17:35:54.066Z,3.78
2022-10-18T17:38:20.662Z,6.15
2022-10-18T17:40:47.216Z,5.25
2022-10-18T17:43:13.986Z,4.60
2022-10-18T17:45:51.215Z,5.45
2022-10-18T17:48:18.041Z,6.18
2022-10-18T17:50:44.828Z,6.32
2022-10-18T17:53:13.141Z,4.25
2022-10-18T17:55:40.253Z,7.25
2022-10-18T17:58:06.839Z,7.47
2022-10-18T18:00:33.400Z,3.72
2022-10-18T18:03:00.740Z,5.97
2022-10-18T18:05:32.466Z,6.45
2022-10-18T18:08:02.937Z,4.95
2022-10-18T18:10:32.918Z,3.80
2022-10-18T18:12:59.554Z,4.90
2022-10-18T18:15:26.142Z,6.18
2022-10-18T18:17:57.180Z,5.75
2022-10-18T18:20:24.505Z,7.57
2022-10-18T18:22:51.521Z,7.05
2022-10-18T18:25:18.183Z,2.42
2022-10-18T18:27:44.744Z,4.65
2022-10-18T18:30:11.581Z,4.50
2022-10-18T18:32:38.191Z,10.20
2022-10-18T18:35:05.136Z,3.03
2022-10-18T18:37:31.888Z,4.65
2022-10-18T18:39:58.448Z,5.45
2022-10-18T18:42:25.046Z,5.07
2022-10-18T18:44:51.633Z,2.72
2022-10-18T18:47:21.589Z,7.95
2022-10-18T18:49:48.692Z,3.80
2022-10-18T18:52:15.428Z,7.57
2022-10-18T18:54:41.973Z,6.68
2022-10-18T18:57:08.546Z,4.20
2022-10-18T18:59:35.151Z,5.50
2022-10-18T19:02:01.702Z,2.47
2022-10-18T19:04:29.078Z,9.68
2022-10-18T19:06:55.777Z,7.80
2022-10-18T19:09:23.000Z,8.23
2022-10-18T19:11:54.999Z,8.00
2022-10-18T19:14:24.059Z,5.60
2022-10-18T19:17:01.181Z,4.95
2022-10-18T19:19:29.436Z,9.65
2022-10-18T19:21:58.118Z,7.25
2022-10-18T19:24:26.695Z,6.93
2022-10-18T19:29:28.991Z,8.02
2022-10-18T19:31:58.219Z,6.65
2022-10-18T19:34:26.365Z,6.82
2022-10-18T19:36:52.992Z,6.55
2022-10-18T19:39:25.328Z,7.88
2022-10-18T19:41:56.284Z,7.82
2022-10-18T19:44:24.178Z,7.15
2022-10-18T19:46:50.841Z,7.60
2022-10-18T19:49:17.464Z,6.93
2022-10-18T19:51:44.257Z,4.57
2022-10-18T19:54:11.908Z,12.75
2022-10-18T19:56:38.856Z,8.13
2022-10-18T19:59:05.433Z,6.97
2022-10-18T20:01:32.245Z,2.88
2022-10-18T20:03:59.103Z,3.50
2022-10-18T20:06:25.836Z,3.03
2022-10-18T20:08:52.793Z,7.38
2022-10-18T20:11:22.862Z,6.55
2022-10-18T20:13:49.936Z,5.80
2022-10-18T20:16:18.880Z,4.85
2022-10-18T20:18:45.504Z,6.35
2022-10-18T20:21:15.268Z,6.32
2022-10-18T20:23:42.935Z,8.85
2022-10-18T20:26:17.943Z,5.60
2022-10-18T20:28:48.223Z,8.93
2022-10-18T20:33:44.621Z,6.30
2022-10-18T20:36:13.657Z,4.20
2022-10-18T20:38:42.131Z,8.18
2022-10-18T20:41:23.308Z,6.57
2022-10-18T20:43:54.855Z,5.35
2022-10-18T20:46:21.937Z,7.28
2022-10-18T20:48:49.772Z,4.95
2022-10-18T20:51:17.156Z,7.20
2022-10-18T20:53:43.788Z,10.27
2022-10-18T20:56:11.704Z,5.90
2022-10-18T20:58:39.199Z,5.38
2022-10-18T21:01:13.358Z,5.47
2022-10-18T21:03:41.775Z,7.47
2022-10-18T21:06:13.216Z,10.88
2022-10-18T21:08:40.226Z,7.72
2022-10-18T21:11:07.321Z,6.88
2022-10-18T21:13:34.054Z,6.32
2022-10-18T21:16:01.144Z,11.18
2022-10-18T21:18:29.921Z,7.55
2022-10-18T21:21:03.494Z,22.55
2022-10-18T21:23:30.089Z,9.02
2022-10-18T21:25:56.659Z,7.15
2022-10-18T21:28:23.984Z,8.15
2022-10-18T21:30:50.544Z,6.03
2022-10-18T21:33:17.091Z,7.90
2022-10-18T21:35:43.736Z,8.70
2022-10-18T21:38:10.272Z,22.05
2022-10-18T21:40:36.909Z,14.18
2022-10-18T21:43:03.463Z,8.77
2022-10-18T21:45:30.022Z,14.23
2022-10-18T21:47:56.568Z,4.68
2022-10-18T21:50:23.319Z,8.15
2022-10-18T21:52:49.871Z,15.63
2022-10-18T21:55:16.440Z,12.18
2022-10-18T21:57:43.067Z,4.20
2022-10-18T22:00:10.324Z,9.43
2022-10-18T22:02:36.881Z,8.75
2022-10-18T22:05:07.020Z,8.70
2022-10-18T22:07:36.517Z,4.88
2022-10-18T22:10:03.606Z,8.00
2022-10-18T22:12:30.136Z,5.43
2022-10-18T22:14:56.684Z,7.28
2022-10-18T22:17:23.760Z,10.15
2022-10-18T22:19:50.299Z,7.00
2022-10-18T22:22:16.856Z,11.98
2022-10-18T22:24:43.429Z,8.70
2022-10-18T22:27:09.984Z,7.97
2022-10-18T22:29:36.573Z,12.27
2022-10-18T22:32:03.109Z,9.52
2022-10-18T22:34:29.694Z,10.73
2022-10-18T22:36:56.476Z,8.88
2022-10-18T22:39:24.625Z,12.20
2022-10-18T22:41:55.863Z,7.07
2022-10-18T22:44:22.709Z,15.50
2022-10-18T22:46:49.310Z,6.65
2022-10-18T22:49:15.944Z,9.63
2022-10-18T22:51:42.532Z,9.77
2022-10-18T22:54:09.177Z,9.85
2022-10-18T22:56:35.735Z,7.50
2022-10-18T22:59:02.316Z,10.85
2022-10-18T23:01:28.885Z,9.00
2022-10-18T23:03:57.427Z,6.03
2022-10-18T23:08:52.568Z,13.02
2022-10-18T23:11:19.479Z,6.97
2022-10-18T23:13:46.335Z,5.82
2022-10-18T23:16:13.194Z,4.72
2022-10-18T23:21:12.922Z,5.97
2022-10-18T23:23:41.323Z,8.85
2022-10-18T23:26:12.939Z,9.38
2022-10-18T23:28:42.785Z,5.80
2022-10-18T23:31:13.939Z,7.63
2022-10-18T23:33:41.161Z,10.18
2022-10-18T23:36:08.669Z,6.40
2022-10-18T23:38:36.729Z,7.28
2022-10-18T23:41:04.228Z,4.47
2022-10-18T23:43:30.829Z,5.38
2022-10-18T23:45:57.408Z,7.95
2022-10-18T23:48:24.072Z,7.38
2022-10-18T23:50:50.897Z,7.07
2022-10-18T23:53:19.612Z,10.57
2022-10-18T23:56:02.767Z,6.88
2022-10-18T23:58:31.452Z,3.28
